sensor_id;sensor_type;location;lat;lon;timestamp;P1;durP1;ratioP1;P2;durP2;ratioP2
60243;SDS011;46106;51.468;5.814;2023-06-05T00:01:36;3.97;;;1.85;;
60243;SDS011;46106;51.468;5.814;2023-06-05T00:04:02;3.30;;;1.40;;
60243;SDS011;46106;51.468;5.814;2023-06-05T00:06:28;5.00;;;1.58;;
60243;SDS011;46106;51.468;5.814;2023-06-05T00:08:54;2.97;;;2.10;;
60243;SDS011;46106;51.468;5.814;2023-06-05T00:11:20;5.80;;;1.98;;
60243;SDS011;46106;51.468;5.814;2023-06-05T00:13:45;5.68;;;1.60;;
60243;SDS011;46106;51.468;5.814;2023-06-05T00:16:11;3.25;;;1.58;;
60243;SDS011;46106;51.468;5.814;2023-06-05T00:18:36;6.88;;;1.85;;
60243;SDS011;46106;51.468;5.814;2023-06-05T00:21:02;5.43;;;1.70;;
60243;SDS011;46106;51.468;5.814;2023-06-05T00:23:29;4.05;;;1.85;;
60243;SDS011;46106;51.468;5.814;2023-06-05T00:25:54;7.10;;;1.80;;
60243;SDS011;46106;51.468;5.814;2023-06-05T00:28:20;4.07;;;1.73;;
60243;SDS011;46106;51.468;5.814;2023-06-05T00:30:45;2.78;;;1.75;;
60243;SDS011;46106;51.468;5.814;2023-06-05T00:33:11;3.15;;;1.90;;
60243;SDS011;46106;51.468;5.814;2023-06-05T00:35:36;4.18;;;1.95;;
60243;SDS011;46106;51.468;5.814;2023-06-05T00:38:03;3.97;;;1.80;;
60243;SDS011;46106;51.468;5.814;2023-06-05T00:40:28;3.95;;;2.10;;
60243;SDS011;46106;51.468;5.814;2023-06-05T00:42:54;5.20;;;1.77;;
60243;SDS011;46106;51.468;5.814;2023-06-05T00:45:19;3.45;;;2.13;;
60243;SDS011;46106;51.468;5.814;2023-06-05T00:47:45;3.58;;;1.77;;
60243;SDS011;46106;51.468;5.814;2023-06-05T00:50:11;3.72;;;1.63;;
60243;SDS011;46106;51.468;5.814;2023-06-05T00:52:40;4.05;;;1.65;;
60243;SDS011;46106;51.468;5.814;2023-06-05T00:55:10;7.15;;;2.00;;
60243;SDS011;46106;51.468;5.814;2023-06-05T00:57:37;6.32;;;2.13;;
60243;SDS011;46106;51.468;5.814;2023-06-05T01:00:04;6.45;;;2.13;;
60243;SDS011;46106;51.468;5.814;2023-06-05T01:02:32;3.47;;;2.40;;
60243;SDS011;46106;51.468;5.814;2023-06-05T01:04:59;9.75;;;2.00;;
60243;SDS011;46106;51.468;5.814;2023-06-05T01:07:25;3.75;;;2.10;;
60243;SDS011;46106;51.468;5.814;2023-06-05T01:09:53;6.47;;;2.08;;
60243;SDS011;46106;51.468;5.814;2023-06-05T01:15:01;5.20;;;2.10;;
60243;SDS011;46106;51.468;5.814;2023-06-05T01:17:27;2.55;;;2.25;;
60243;SDS011;46106;51.468;5.814;2023-06-05T01:19:54;4.10;;;2.13;;
60243;SDS011;46106;51.468;5.814;2023-06-05T01:22:20;5.07;;;2.35;;
60243;SDS011;46106;51.468;5.814;2023-06-05T01:24:45;6.80;;;2.28;;
60243;SDS011;46106;51.468;5.814;2023-06-05T01:27:19;4.05;;;2.33;;
60243;SDS011;46106;51.468;5.814;2023-06-05T01:30:05;5.68;;;2.30;;
60243;SDS011;46106;51.468;5.814;2023-06-05T01:35:11;6.50;;;2.63;;
60243;SDS011;46106;51.468;5.814;2023-06-05T01:37:42;5.45;;;2.70;;
60243;SDS011;46106;51.468;5.814;2023-06-05T01:40:13;4.00;;;2.35;;
60243;SDS011;46106;51.468;5.814;2023-06-05T01:42:40;5.30;;;2.58;;
60243;SDS011;46106;51.468;5.814;2023-06-05T01:45:08;4.63;;;2.53;;
60243;SDS011;46106;51.468;5.814;2023-06-05T01:47:36;4.82;;;2.25;;
60243;SDS011;46106;51.468;5.814;2023-06-05T01:50:02;7.95;;;3.17;;
60243;SDS011;46106;51.468;5.814;2023-06-05T01:52:28;7.90;;;2.83;;
60243;SDS011;46106;51.468;5.814;2023-06-05T01:54:54;6.30;;;2.63;;
60243;SDS011;46106;51.468;5.814;2023-06-05T01:57:20;9.43;;;2.78;;
60243;SDS011;46106;51.468;5.814;2023-06-05T01:59:46;5.47;;;3.30;;
60243;SDS011;46106;51.468;5.814;2023-06-05T02:02:11;6.35;;;3.30;;
60243;SDS011;46106;51.468;5.814;2023-06-05T02:04:39;8.48;;;2.85;;
60243;SDS011;46106;51.468;5.814;2023-06-05T02:07:05;6.03;;;3.20;;
60243;SDS011;46106;51.468;5.814;2023-06-05T02:09:32;7.00;;;2.97;;
60243;SDS011;46106;51.468;5.814;2023-06-05T02:11:58;17.25;;;3.45;;
60243;SDS011;46106;51.468;5.814;2023-06-05T02:14:29;6.30;;;3.13;;
60243;SDS011;46106;51.468;5.814;2023-06-05T02:16:57;8.00;;;3.17;;
60243;SDS011;46106;51.468;5.814;2023-06-05T02:19:23;5.93;;;2.83;;
60243;SDS011;46106;51.468;5.814;2023-06-05T02:21:49;6.20;;;2.97;;
60243;SDS011;46106;51.468;5.814;2023-06-05T02:24:17;9.00;;;3.00;;
60243;SDS011;46106;51.468;5.814;2023-06-05T02:26:44;4.97;;;3.22;;
60243;SDS011;46106;51.468;5.814;2023-06-05T02:29:10;11.02;;;3.30;;
60243;SDS011;46106;51.468;5.814;2023-06-05T02:31:35;3.80;;;3.00;;
60243;SDS011;46106;51.468;5.814;2023-06-05T02:34:02;4.10;;;2.80;;
60243;SDS011;46106;51.468;5.814;2023-06-05T02:36:28;8.18;;;3.38;;
60243;SDS011;46106;51.468;5.814;2023-06-05T02:38:58;4.72;;;3.50;;
60243;SDS011;46106;51.468;5.814;2023-06-05T02:41:24;6.10;;;3.20;;
60243;SDS011;46106;51.468;5.814;2023-06-05T02:43:54;8.00;;;3.50;;
60243;SDS011;46106;51.468;5.814;2023-06-05T02:46:20;5.03;;;3.38;;
60243;SDS011;46106;51.468;5.814;2023-06-05T02:48:50;5.25;;;3.15;;
60243;SDS011;46106;51.468;5.814;2023-06-05T02:51:16;8.43;;;3.45;;
60243;SDS011;46106;51.468;5.814;2023-06-05T02:53:42;6.90;;;3.20;;
60243;SDS011;46106;51.468;5.814;2023-06-05T02:56:07;6.75;;;3.65;;
60243;SDS011;46106;51.468;5.814;2023-06-05T02:58:33;5.15;;;3.33;;
60243;SDS011;46106;51.468;5.814;2023-06-05T03:01:02;5.10;;;3.63;;
60243;SDS011;46106;51.468;5.814;2023-06-05T03:03:31;5.20;;;3.88;;
60243;SDS011;46106;51.468;5.814;2023-06-05T03:06:00;5.97;;;3.90;;
60243;SDS011;46106;51.468;5.814;2023-06-05T03:08:33;6.00;;;3.97;;
60243;SDS011;46106;51.468;5.814;2023-06-05T03:11:03;15.60;;;5.15;;
60243;SDS011;46106;51.468;5.814;2023-06-05T03:13:29;9.65;;;4.85;;
60243;SDS011;46106;51.468;5.814;2023-06-05T03:15:57;5.38;;;4.30;;
60243;SDS011;46106;51.468;5.814;2023-06-05T03:18:26;7.38;;;4.13;;
60243;SDS011;46106;51.468;5.814;2023-06-05T03:20:52;5.82;;;3.83;;
60243;SDS011;46106;51.468;5.814;2023-06-05T03:23:25;6.22;;;4.15;;
60243;SDS011;46106;51.468;5.814;2023-06-05T03:25:53;8.05;;;3.67;;
60243;SDS011;46106;51.468;5.814;2023-06-05T03:28:20;4.35;;;3.78;;
60243;SDS011;46106;51.468;5.814;2023-06-05T03:30:46;5.55;;;4.05;;
60243;SDS011;46106;51.468;5.814;2023-06-05T03:33:12;7.13;;;4.38;;
60243;SDS011;46106;51.468;5.814;2023-06-05T03:35:44;8.82;;;4.90;;
60243;SDS011;46106;51.468;5.814;2023-06-05T03:38:14;6.00;;;4.00;;
60243;SDS011;46106;51.468;5.814;2023-06-05T03:40:40;6.78;;;4.30;;
60243;SDS011;46106;51.468;5.814;2023-06-05T03:43:06;9.43;;;4.95;;
60243;SDS011;46106;51.468;5.814;2023-06-05T03:45:32;10.48;;;4.80;;
60243;SDS011;46106;51.468;5.814;2023-06-05T03:47:59;9.70;;;4.90;;
60243;SDS011;46106;51.468;5.814;2023-06-05T03:50:27;8.32;;;5.15;;
60243;SDS011;46106;51.468;5.814;2023-06-05T03:52:57;5.28;;;4.38;;
60243;SDS011;46106;51.468;5.814;2023-06-05T03:55:36;8.43;;;4.35;;
60243;SDS011;46106;51.468;5.814;2023-06-05T03:58:14;8.20;;;5.35;;
60243;SDS011;46106;51.468;5.814;2023-06-05T04:00:43;7.85;;;4.65;;
60243;SDS011;46106;51.468;5.814;2023-06-05T04:03:11;7.65;;;4.53;;
60243;SDS011;46106;51.468;5.814;2023-06-05T04:05:37;10.27;;;5.05;;
60243;SDS011;46106;51.468;5.814;2023-06-05T04:08:07;8.07;;;4.47;;
60243;SDS011;46106;51.468;5.814;2023-06-05T04:10:34;7.18;;;4.40;;
60243;SDS011;46106;51.468;5.814;2023-06-05T04:13:00;7.63;;;5.15;;
60243;SDS011;46106;51.468;5.814;2023-06-05T04:15:28;9.50;;;5.45;;
60243;SDS011;46106;51.468;5.814;2023-06-05T04:17:53;8.80;;;5.30;;
60243;SDS011;46106;51.468;5.814;2023-06-05T04:20:19;7.18;;;4.97;;
60243;SDS011;46106;51.468;5.814;2023-06-05T04:22:45;8.20;;;5.05;;
60243;SDS011;46106;51.468;5.814;2023-06-05T04:25:11;6.95;;;4.50;;
60243;SDS011;46106;51.468;5.814;2023-06-05T04:27:40;8.88;;;5.97;;
60243;SDS011;46106;51.468;5.814;2023-06-05T04:30:09;7.18;;;4.57;;
60243;SDS011;46106;51.468;5.814;2023-06-05T04:32:37;7.50;;;5.10;;
60243;SDS011;46106;51.468;5.814;2023-06-05T04:35:04;7.97;;;5.35;;
60243;SDS011;46106;51.468;5.814;2023-06-05T04:37:37;8.80;;;5.30;;
60243;SDS011;46106;51.468;5.814;2023-06-05T04:40:04;12.35;;;5.60;;
60243;SDS011;46106;51.468;5.814;2023-06-05T04:42:34;10.70;;;5.65;;
60243;SDS011;46106;51.468;5.814;2023-06-05T04:45:01;10.35;;;5.10;;
60243;SDS011;46106;51.468;5.814;2023-06-05T04:47:29;8.52;;;5.63;;
60243;SDS011;46106;51.468;5.814;2023-06-05T04:49:59;6.40;;;4.82;;
60243;SDS011;46106;51.468;5.814;2023-06-05T04:52:28;6.55;;;5.15;;
60243;SDS011;46106;51.468;5.814;2023-06-05T04:54:54;6.18;;;5.00;;
60243;SDS011;46106;51.468;5.814;2023-06-05T04:57:20;7.55;;;5.18;;
60243;SDS011;46106;51.468;5.814;2023-06-05T04:59:45;7.03;;;5.57;;
60243;SDS011;46106;51.468;5.814;2023-06-05T05:02:11;14.93;;;6.30;;
60243;SDS011;46106;51.468;5.814;2023-06-05T05:04:37;10.23;;;5.47;;
60243;SDS011;46106;51.468;5.814;2023-06-05T05:07:03;8.63;;;5.50;;
60243;SDS011;46106;51.468;5.814;2023-06-05T05:09:32;17.15;;;6.20;;
60243;SDS011;46106;51.468;5.814;2023-06-05T05:11:58;9.57;;;5.78;;
60243;SDS011;46106;51.468;5.814;2023-06-05T05:14:24;15.23;;;6.43;;
60243;SDS011;46106;51.468;5.814;2023-06-05T05:16:53;12.15;;;5.97;;
60243;SDS011;46106;51.468;5.814;2023-06-05T05:19:20;11.30;;;5.32;;
60243;SDS011;46106;51.468;5.814;2023-06-05T05:21:47;10.70;;;5.95;;
60243;SDS011;46106;51.468;5.814;2023-06-05T05:24:13;13.68;;;5.45;;
60243;SDS011;46106;51.468;5.814;2023-06-05T05:26:38;12.93;;;5.68;;
60243;SDS011;46106;51.468;5.814;2023-06-05T05:29:10;24.88;;;6.75;;
60243;SDS011;46106;51.468;5.814;2023-06-05T05:31:35;12.15;;;5.65;;
60243;SDS011;46106;51.468;5.814;2023-06-05T05:34:01;17.25;;;6.30;;
60243;SDS011;46106;51.468;5.814;2023-06-05T05:36:26;15.63;;;6.22;;
60243;SDS011;46106;51.468;5.814;2023-06-05T05:38:55;16.23;;;5.97;;
60243;SDS011;46106;51.468;5.814;2023-06-05T05:41:20;9.45;;;6.00;;
60243;SDS011;46106;51.468;5.814;2023-06-05T05:43:47;7.65;;;5.78;;
60243;SDS011;46106;51.468;5.814;2023-06-05T05:46:12;9.50;;;6.50;;
60243;SDS011;46106;51.468;5.814;2023-06-05T05:48:38;8.45;;;5.35;;
60243;SDS011;46106;51.468;5.814;2023-06-05T05:51:05;13.30;;;5.38;;
60243;SDS011;46106;51.468;5.814;2023-06-05T05:53:31;11.95;;;5.70;;
60243;SDS011;46106;51.468;5.814;2023-06-05T05:55:57;7.38;;;5.35;;
60243;SDS011;46106;51.468;5.814;2023-06-05T05:58:22;7.82;;;5.45;;
60243;SDS011;46106;51.468;5.814;2023-06-05T06:00:48;5.93;;;5.25;;
60243;SDS011;46106;51.468;5.814;2023-06-05T06:03:13;6.45;;;5.25;;
60243;SDS011;46106;51.468;5.814;2023-06-05T06:05:41;11.55;;;5.68;;
60243;SDS011;46106;51.468;5.814;2023-06-05T06:08:06;15.13;;;5.78;;
60243;SDS011;46106;51.468;5.814;2023-06-05T06:10:32;8.20;;;5.82;;
60243;SDS011;46106;51.468;5.814;2023-06-05T06:12:58;7.43;;;5.55;;
60243;SDS011;46106;51.468;5.814;2023-06-05T06:15:26;7.90;;;5.30;;
60243;SDS011;46106;51.468;5.814;2023-06-05T06:17:53;9.30;;;5.25;;
60243;SDS011;46106;51.468;5.814;2023-06-05T06:20:18;8.32;;;5.50;;
60243;SDS011;46106;51.468;5.814;2023-06-05T06:22:44;9.38;;;5.13;;
60243;SDS011;46106;51.468;5.814;2023-06-05T06:25:10;7.03;;;4.90;;
60243;SDS011;46106;51.468;5.814;2023-06-05T06:27:37;7.20;;;4.30;;
60243;SDS011;46106;51.468;5.814;2023-06-05T06:30:03;6.38;;;4.78;;
60243;SDS011;46106;51.468;5.814;2023-06-05T06:32:29;7.97;;;5.00;;
60243;SDS011;46106;51.468;5.814;2023-06-05T06:34:56;7.78;;;5.20;;
60243;SDS011;46106;51.468;5.814;2023-06-05T06:37:22;9.18;;;5.05;;
60243;SDS011;46106;51.468;5.814;2023-06-05T06:39:47;7.15;;;4.95;;
60243;SDS011;46106;51.468;5.814;2023-06-05T06:42:13;9.02;;;5.22;;
60243;SDS011;46106;51.468;5.814;2023-06-05T06:44:39;9.30;;;5.35;;
60243;SDS011;46106;51.468;5.814;2023-06-05T06:47:05;8.13;;;5.18;;
60243;SDS011;46106;51.468;5.814;2023-06-05T06:49:31;8.00;;;4.95;;
60243;SDS011;46106;51.468;5.814;2023-06-05T06:51:56;9.10;;;5.20;;
60243;SDS011;46106;51.468;5.814;2023-06-05T06:54:22;6.13;;;4.68;;
60243;SDS011;46106;51.468;5.814;2023-06-05T06:56:50;10.63;;;5.05;;
60243;SDS011;46106;51.468;5.814;2023-06-05T06:59:16;5.55;;;4.95;;
60243;SDS011;46106;51.468;5.814;2023-06-05T07:01:45;8.75;;;5.30;;
60243;SDS011;46106;51.468;5.814;2023-06-05T07:04:12;6.38;;;4.80;;
60243;SDS011;46106;51.468;5.814;2023-06-05T07:06:43;5.88;;;4.60;;
60243;SDS011;46106;51.468;5.814;2023-06-05T07:09:09;8.00;;;5.40;;
60243;SDS011;46106;51.468;5.814;2023-06-05T07:11:34;8.00;;;5.00;;
60243;SDS011;46106;51.468;5.814;2023-06-05T07:14:00;5.63;;;4.57;;
60243;SDS011;46106;51.468;5.814;2023-06-05T07:16:25;6.47;;;5.20;;
60243;SDS011;46106;51.468;5.814;2023-06-05T07:18:51;5.70;;;4.35;;
60243;SDS011;46106;51.468;5.814;2023-06-05T07:21:17;5.85;;;4.78;;
60243;SDS011;46106;51.468;5.814;2023-06-05T07:23:43;8.68;;;4.63;;
60243;SDS011;46106;51.468;5.814;2023-06-05T07:26:09;7.43;;;5.38;;
60243;SDS011;46106;51.468;5.814;2023-06-05T07:28:35;8.73;;;5.28;;
60243;SDS011;46106;51.468;5.814;2023-06-05T07:31:00;6.15;;;4.75;;
60243;SDS011;46106;51.468;5.814;2023-06-05T07:33:28;9.32;;;5.10;;
60243;SDS011;46106;51.468;5.814;2023-06-05T07:35:54;6.40;;;5.28;;
60243;SDS011;46106;51.468;5.814;2023-06-05T07:38:19;5.38;;;4.53;;
60243;SDS011;46106;51.468;5.814;2023-06-05T07:40:45;7.32;;;4.55;;
60243;SDS011;46106;51.468;5.814;2023-06-05T07:43:11;7.30;;;4.45;;
60243;SDS011;46106;51.468;5.814;2023-06-05T07:45:39;10.05;;;4.60;;
60243;SDS011;46106;51.468;5.814;2023-06-05T07:48:05;6.05;;;4.68;;
60243;SDS011;46106;51.468;5.814;2023-06-05T07:50:31;8.10;;;4.97;;
60243;SDS011;46106;51.468;5.814;2023-06-05T07:52:56;5.68;;;4.13;;
60243;SDS011;46106;51.468;5.814;2023-06-05T07:55:22;7.72;;;4.75;;
60243;SDS011;46106;51.468;5.814;2023-06-05T07:57:47;8.02;;;4.85;;
60243;SDS011;46106;51.468;5.814;2023-06-05T08:00:13;7.50;;;4.75;;
60243;SDS011;46106;51.468;5.814;2023-06-05T08:02:38;5.75;;;4.95;;
60243;SDS011;46106;51.468;5.814;2023-06-05T08:05:05;11.18;;;5.50;;
60243;SDS011;46106;51.468;5.814;2023-06-05T08:07:31;10.70;;;4.95;;
60243;SDS011;46106;51.468;5.814;2023-06-05T08:09:57;8.88;;;4.82;;
60243;SDS011;46106;51.468;5.814;2023-06-05T08:12:22;8.90;;;4.68;;
60243;SDS011;46106;51.468;5.814;2023-06-05T08:14:47;5.82;;;4.75;;
60243;SDS011;46106;51.468;5.814;2023-06-05T08:17:13;11.02;;;5.30;;
60243;SDS011;46106;51.468;5.814;2023-06-05T08:19:38;13.40;;;6.95;;
60243;SDS011;46106;51.468;5.814;2023-06-05T08:22:04;7.95;;;6.22;;
60243;SDS011;46106;51.468;5.814;2023-06-05T08:24:29;9.32;;;5.80;;
60243;SDS011;46106;51.468;5.814;2023-06-05T08:26:56;9.50;;;6.18;;
60243;SDS011;46106;51.468;5.814;2023-06-05T08:29:24;8.60;;;5.60;;
60243;SDS011;46106;51.468;5.814;2023-06-05T08:31:50;9.50;;;5.60;;
60243;SDS011;46106;51.468;5.814;2023-06-05T08:34:15;9.85;;;6.30;;
60243;SDS011;46106;51.468;5.814;2023-06-05T08:36:41;9.50;;;5.78;;
60243;SDS011;46106;51.468;5.814;2023-06-05T08:39:07;9.95;;;6.00;;
60243;SDS011;46106;51.468;5.814;2023-06-05T08:41:34;8.35;;;6.30;;
60243;SDS011;46106;51.468;5.814;2023-06-05T08:44:00;11.48;;;6.20;;
60243;SDS011;46106;51.468;5.814;2023-06-05T08:46:29;8.60;;;5.68;;
60243;SDS011;46106;51.468;5.814;2023-06-05T08:48:57;11.80;;;5.47;;
60243;SDS011;46106;51.468;5.814;2023-06-05T08:51:23;8.20;;;5.60;;
60243;SDS011;46106;51.468;5.814;2023-06-05T08:53:54;8.07;;;5.95;;
60243;SDS011;46106;51.468;5.814;2023-06-05T08:56:26;13.60;;;6.50;;
60243;SDS011;46106;51.468;5.814;2023-06-05T08:58:53;8.57;;;5.70;;
60243;SDS011;46106;51.468;5.814;2023-06-05T09:01:20;11.68;;;6.38;;
60243;SDS011;46106;51.468;5.814;2023-06-05T09:03:45;9.68;;;6.07;;
60243;SDS011;46106;51.468;5.814;2023-06-05T09:06:11;11.20;;;6.50;;
60243;SDS011;46106;51.468;5.814;2023-06-05T09:08:37;9.20;;;6.18;;
60243;SDS011;46106;51.468;5.814;2023-06-05T09:13:48;13.50;;;5.85;;
60243;SDS011;46106;51.468;5.814;2023-06-05T09:16:13;11.02;;;6.20;;
60243;SDS011;46106;51.468;5.814;2023-06-05T09:18:54;10.57;;;5.95;;
60243;SDS011;46106;51.468;5.814;2023-06-05T09:21:22;14.50;;;6.88;;
60243;SDS011;46106;51.468;5.814;2023-06-05T09:29:27;10.10;;;7.03;;
60243;SDS011;46106;51.468;5.814;2023-06-05T09:31:57;11.77;;;6.18;;
60243;SDS011;46106;51.468;5.814;2023-06-05T09:34:28;10.90;;;6.28;;
60243;SDS011;46106;51.468;5.814;2023-06-05T09:36:55;9.25;;;6.72;;
60243;SDS011;46106;51.468;5.814;2023-06-05T09:39:22;12.70;;;6.85;;
60243;SDS011;46106;51.468;5.814;2023-06-05T09:41:50;10.48;;;6.03;;
60243;SDS011;46106;51.468;5.814;2023-06-05T09:44:17;9.40;;;6.35;;
60243;SDS011;46106;51.468;5.814;2023-06-05T09:49:20;10.27;;;6.53;;
60243;SDS011;46106;51.468;5.814;2023-06-05T09:51:50;7.28;;;5.78;;
60243;SDS011;46106;51.468;5.814;2023-06-05T09:54:17;6.45;;;5.05;;
60243;SDS011;46106;51.468;5.814;2023-06-05T09:59:21;13.02;;;6.68;;
60243;SDS011;46106;51.468;5.814;2023-06-05T10:01:48;8.43;;;6.28;;
60243;SDS011;46106;51.468;5.814;2023-06-05T10:04:16;8.57;;;6.30;;
60243;SDS011;46106;51.468;5.814;2023-06-05T10:06:43;11.90;;;6.30;;
60243;SDS011;46106;51.468;5.814;2023-06-05T10:09:11;13.93;;;6.07;;
60243;SDS011;46106;51.468;5.814;2023-06-05T10:11:39;8.82;;;5.90;;
60243;SDS011;46106;51.468;5.814;2023-06-05T10:14:06;6.60;;;5.28;;
60243;SDS011;46106;51.468;5.814;2023-06-05T10:16:37;9.83;;;5.23;;
60243;SDS011;46106;51.468;5.814;2023-06-05T10:19:05;7.38;;;5.90;;
60243;SDS011;46106;51.468;5.814;2023-06-05T10:21:31;10.05;;;5.88;;
60243;SDS011;46106;51.468;5.814;2023-06-05T10:32:12;6.70;;;5.43;;
60243;SDS011;46106;51.468;5.814;2023-06-05T10:39:49;5.90;;;4.18;;
60243;SDS011;46106;51.468;5.814;2023-06-05T10:42:25;9.23;;;4.50;;
60243;SDS011;46106;51.468;5.814;2023-06-05T10:44:52;5.90;;;4.63;;
60243;SDS011;46106;51.468;5.814;2023-06-05T10:52:46;7.32;;;4.30;;
60243;SDS011;46106;51.468;5.814;2023-06-05T10:55:13;7.03;;;4.50;;
60243;SDS011;46106;51.468;5.814;2023-06-05T11:00:28;9.77;;;5.30;;
60243;SDS011;46106;51.468;5.814;2023-06-05T11:02:54;8.57;;;4.38;;
60243;SDS011;46106;51.468;5.814;2023-06-05T11:05:20;7.05;;;4.43;;
60243;SDS011;46106;51.468;5.814;2023-06-05T11:07:46;7.85;;;4.40;;
60243;SDS011;46106;51.468;5.814;2023-06-05T11:10:13;6.75;;;4.10;;
60243;SDS011;46106;51.468;5.814;2023-06-05T11:15:07;7.68;;;4.35;;
60243;SDS011;46106;51.468;5.814;2023-06-05T11:17:34;6.70;;;5.28;;
60243;SDS011;46106;51.468;5.814;2023-06-05T11:20:52;13.23;;;5.00;;
60243;SDS011;46106;51.468;5.814;2023-06-05T11:27:50;10.77;;;4.15;;
60243;SDS011;46106;51.468;5.814;2023-06-05T11:30:17;10.32;;;3.55;;
60243;SDS011;46106;51.468;5.814;2023-06-05T11:32:47;8.82;;;4.00;;
60243;SDS011;46106;51.468;5.814;2023-06-05T11:35:15;7.82;;;4.22;;
60243;SDS011;46106;51.468;5.814;2023-06-05T11:37:41;6.53;;;4.13;;
60243;SDS011;46106;51.468;5.814;2023-06-05T11:40:07;6.07;;;4.10;;
60243;SDS011;46106;51.468;5.814;2023-06-05T11:42:36;5.78;;;4.35;;
60243;SDS011;46106;51.468;5.814;2023-06-05T11:45:13;4.82;;;3.38;;
60243;SDS011;46106;51.468;5.814;2023-06-05T11:47:39;11.00;;;3.90;;
60243;SDS011;46106;51.468;5.814;2023-06-05T11:50:09;10.32;;;4.05;;
60243;SDS011;46106;51.468;5.814;2023-06-05T11:52:36;6.20;;;3.28;;
60243;SDS011;46106;51.468;5.814;2023-06-05T11:55:15;7.25;;;3.63;;
60243;SDS011;46106;51.468;5.814;2023-06-05T11:57:54;5.53;;;3.10;;
60243;SDS011;46106;51.468;5.814;2023-06-05T12:00:26;4.88;;;3.10;;
60243;SDS011;46106;51.468;5.814;2023-06-05T12:02:51;5.57;;;2.80;;
60243;SDS011;46106;51.468;5.814;2023-06-05T12:05:18;4.13;;;3.15;;
60243;SDS011;46106;51.468;5.814;2023-06-05T12:07:43;6.20;;;3.38;;
60243;SDS011;46106;51.468;5.814;2023-06-05T12:10:09;9.57;;;4.18;;
60243;SDS011;46106;51.468;5.814;2023-06-05T12:12:35;8.02;;;2.67;;
60243;SDS011;46106;51.468;5.814;2023-06-05T12:15:16;7.72;;;3.65;;
60243;SDS011;46106;51.468;5.814;2023-06-05T12:17:50;6.40;;;3.00;;
60243;SDS011;46106;51.468;5.814;2023-06-05T12:20:17;3.60;;;2.75;;
60243;SDS011;46106;51.468;5.814;2023-06-05T12:22:43;8.55;;;3.20;;
60243;SDS011;46106;51.468;5.814;2023-06-05T12:25:18;4.13;;;2.85;;
60243;SDS011;46106;51.468;5.814;2023-06-05T12:27:47;8.55;;;2.30;;
60243;SDS011;46106;51.468;5.814;2023-06-05T12:30:14;6.00;;;2.42;;
60243;SDS011;46106;51.468;5.814;2023-06-05T12:32:41;3.25;;;2.40;;
60243;SDS011;46106;51.468;5.814;2023-06-05T12:35:17;6.25;;;2.75;;
60243;SDS011;46106;51.468;5.814;2023-06-05T12:37:47;2.83;;;2.38;;
60243;SDS011;46106;51.468;5.814;2023-06-05T12:40:14;10.10;;;2.72;;
60243;SDS011;46106;51.468;5.814;2023-06-05T12:42:42;3.95;;;1.80;;
60243;SDS011;46106;51.468;5.814;2023-06-05T12:45:08;8.10;;;2.55;;
60243;SDS011;46106;51.468;5.814;2023-06-05T12:47:35;4.47;;;2.60;;
60243;SDS011;46106;51.468;5.814;2023-06-05T12:50:04;6.43;;;2.67;;
60243;SDS011;46106;51.468;5.814;2023-06-05T12:55:01;4.22;;;2.15;;
60243;SDS011;46106;51.468;5.814;2023-06-05T12:57:28;5.32;;;2.30;;
60243;SDS011;46106;51.468;5.814;2023-06-05T12:59:53;3.47;;;2.20;;
60243;SDS011;46106;51.468;5.814;2023-06-05T13:02:20;5.82;;;1.92;;
60243;SDS011;46106;51.468;5.814;2023-06-05T13:04:46;7.35;;;2.15;;
60243;SDS011;46106;51.468;5.814;2023-06-05T13:07:12;6.53;;;2.50;;
60243;SDS011;46106;51.468;5.814;2023-06-05T13:09:37;7.22;;;2.05;;
60243;SDS011;46106;51.468;5.814;2023-06-05T13:12:03;7.72;;;2.28;;
60243;SDS011;46106;51.468;5.814;2023-06-05T13:14:32;2.47;;;1.73;;
60243;SDS011;46106;51.468;5.814;2023-06-05T13:16:58;4.50;;;1.85;;
60243;SDS011;46106;51.468;5.814;2023-06-05T13:19:24;2.83;;;1.63;;
60243;SDS011;46106;51.468;5.814;2023-06-05T13:21:50;2.95;;;1.88;;
60243;SDS011;46106;51.468;5.814;2023-06-05T13:24:16;3.35;;;1.60;;
60243;SDS011;46106;51.468;5.814;2023-06-05T13:26:42;3.40;;;1.48;;
60243;SDS011;46106;51.468;5.814;2023-06-05T13:29:09;3.70;;;2.05;;
60243;SDS011;46106;51.468;5.814;2023-06-05T13:31:35;3.50;;;1.95;;
60243;SDS011;46106;51.468;5.814;2023-06-05T13:34:01;3.60;;;1.45;;
60243;SDS011;46106;51.468;5.814;2023-06-05T13:36:29;1.77;;;1.20;;
60243;SDS011;46106;51.468;5.814;2023-06-05T13:38:54;2.67;;;1.23;;
60243;SDS011;46106;51.468;5.814;2023-06-05T13:41:20;2.35;;;1.42;;
60243;SDS011;46106;51.468;5.814;2023-06-05T13:43:46;7.00;;;2.00;;
60243;SDS011;46106;51.468;5.814;2023-06-05T13:46:12;5.38;;;1.52;;
60243;SDS011;46106;51.468;5.814;2023-06-05T13:48:38;6.32;;;1.70;;
60243;SDS011;46106;51.468;5.814;2023-06-05T13:51:03;4.22;;;1.90;;
60243;SDS011;46106;51.468;5.814;2023-06-05T13:53:29;5.30;;;1.73;;
60243;SDS011;46106;51.468;5.814;2023-06-05T13:56:05;4.18;;;1.40;;
60243;SDS011;46106;51.468;5.814;2023-06-05T13:58:31;3.58;;;1.20;;
60243;SDS011;46106;51.468;5.814;2023-06-05T14:00:57;8.48;;;1.65;;
60243;SDS011;46106;51.468;5.814;2023-06-05T14:03:23;2.58;;;1.67;;
60243;SDS011;46106;51.468;5.814;2023-06-05T14:05:49;6.53;;;1.75;;
60243;SDS011;46106;51.468;5.814;2023-06-05T14:08:15;5.28;;;1.52;;
60243;SDS011;46106;51.468;5.814;2023-06-05T14:10:40;2.80;;;1.45;;
60243;SDS011;46106;51.468;5.814;2023-06-05T14:13:06;3.15;;;1.50;;
60243;SDS011;46106;51.468;5.814;2023-06-05T14:15:32;4.18;;;1.50;;
60243;SDS011;46106;51.468;5.814;2023-06-05T14:17:59;7.20;;;1.63;;
60243;SDS011;46106;51.468;5.814;2023-06-05T14:20:28;2.60;;;1.50;;
60243;SDS011;46106;51.468;5.814;2023-06-05T14:22:58;4.28;;;1.55;;
60243;SDS011;46106;51.468;5.814;2023-06-05T14:25:24;3.08;;;1.83;;
60243;SDS011;46106;51.468;5.814;2023-06-05T14:27:54;5.75;;;1.65;;
60243;SDS011;46106;51.468;5.814;2023-06-05T14:30:24;3.55;;;1.50;;
60243;SDS011;46106;51.468;5.814;2023-06-05T14:32:51;3.05;;;1.30;;
60243;SDS011;46106;51.468;5.814;2023-06-05T14:35:17;5.07;;;1.60;;
60243;SDS011;46106;51.468;5.814;2023-06-05T14:37:44;4.20;;;1.40;;
60243;SDS011;46106;51.468;5.814;2023-06-05T14:40:11;3.97;;;1.10;;
60243;SDS011;46106;51.468;5.814;2023-06-05T14:42:36;3.78;;;1.50;;
60243;SDS011;46106;51.468;5.814;2023-06-05T14:45:02;2.08;;;1.20;;
60243;SDS011;46106;51.468;5.814;2023-06-05T14:47:28;3.47;;;1.13;;
60243;SDS011;46106;51.468;5.814;2023-06-05T14:49:53;3.90;;;1.20;;
60243;SDS011;46106;51.468;5.814;2023-06-05T14:52:19;5.75;;;1.40;;
60243;SDS011;46106;51.468;5.814;2023-06-05T14:54:44;5.72;;;1.20;;
60243;SDS011;46106;51.468;5.814;2023-06-05T14:57:10;2.83;;;1.40;;
60243;SDS011;46106;51.468;5.814;2023-06-05T14:59:35;5.43;;;1.48;;
60243;SDS011;46106;51.468;5.814;2023-06-05T15:02:01;2.97;;;1.40;;
60243;SDS011;46106;51.468;5.814;2023-06-05T15:04:27;1.40;;;1.20;;
60243;SDS011;46106;51.468;5.814;2023-06-05T15:06:54;4.63;;;1.27;;
60243;SDS011;46106;51.468;5.814;2023-06-05T15:09:20;3.55;;;1.17;;
60243;SDS011;46106;51.468;5.814;2023-06-05T15:11:49;2.03;;;1.30;;
60243;SDS011;46106;51.468;5.814;2023-06-05T15:14:20;4.68;;;1.38;;
60243;SDS011;46106;51.468;5.814;2023-06-05T15:16:46;9.50;;;1.55;;
60243;SDS011;46106;51.468;5.814;2023-06-05T15:19:11;2.30;;;1.27;;
60243;SDS011;46106;51.468;5.814;2023-06-05T15:21:37;1.65;;;1.20;;
60243;SDS011;46106;51.468;5.814;2023-06-05T15:24:02;4.35;;;1.20;;
60243;SDS011;46106;51.468;5.814;2023-06-05T15:26:28;2.70;;;1.23;;
60243;SDS011;46106;51.468;5.814;2023-06-05T15:28:53;2.47;;;1.25;;
60243;SDS011;46106;51.468;5.814;2023-06-05T15:31:19;4.38;;;1.40;;
60243;SDS011;46106;51.468;5.814;2023-06-05T15:33:44;5.63;;;1.58;;
60243;SDS011;46106;51.468;5.814;2023-06-05T15:36:09;3.22;;;1.20;;